Time;durP1;ratioP1;P1;durP2;ratioP2;P2;SDS_P1;SDS_P2;PMS_P1;PMS_P2;Temp;Humidity;BMP_temperature;BMP_pressure;BME280_temperature;BME280_humidity;BME280_pressure;Samples;Min_cycle;Max_cycle;Signal;HPM_P1;HPM_P2
2021/04/09 00:01:27;;;;;;;4.82;2.12;;;5.70;36.20;;;;;;2366348;53;20921;-60
2021/04/09 00:03:57;;;;;;;3.58;1.50;;;5.60;36.40;;;;;;2597016;52;20962;-62
2021/04/09 00:06:23;;;;;;;4.62;1.50;;;5.60;36.40;;;;;;2334529;54;20958;-63
2021/04/09 00:08:50;;;;;;;3.87;1.52;;;5.50;36.40;;;;;;2365036;53;20918;-61
2021/04/09 00:11:16;;;;;;;3.90;1.87;;;5.50;36.50;;;;;;2366361;53;21441;-61
2021/04/09 00:13:43;;;;;;;3.65;1.83;;;5.50;36.60;;;;;;2363293;53;20885;-59
2021/04/09 00:16:09;;;;;;;4.53;1.90;;;5.40;36.60;;;;;;2366492;53;20898;-59
2021/04/09 00:18:35;;;;;;;4.05;1.80;;;5.40;36.60;;;;;;2366427;53;20953;-59
2021/04/09 00:21:02;;;;;;;3.47;1.80;;;5.30;36.70;;;;;;2366506;53;20874;-59
2021/04/09 00:23:31;;;;;;;3.92;1.55;;;5.30;36.70;;;;;;2366776;53;20898;-61
2021/04/09 00:25:57;;;;;;;3.83;1.83;;;5.20;36.70;;;;;;2366771;53;20934;-60
2021/04/09 00:28:24;;;;;;;4.20;2.20;;;5.30;36.80;;;;;;2366659;53;20889;-59
2021/04/09 00:30:51;;;;;;;3.65;1.60;;;5.10;36.80;;;;;;2617822;52;20882;-59
2021/04/09 00:33:17;;;;;;;4.68;1.80;;;5.10;36.90;;;;;;2366628;53;20913;-59
2021/04/09 00:35:45;;;;;;;4.65;2.10;;;5.10;36.90;;;;;;2366784;53;20968;-60
2021/04/09 00:38:12;;;;;;;4.12;1.92;;;5.00;37.00;;;;;;2355907;53;21041;-62
2021/04/09 00:40:40;;;;;;;3.95;1.87;;;5.00;37.10;;;;;;2355412;53;20997;-62
2021/04/09 00:43:08;;;;;;;4.60;2.10;;;4.90;37.10;;;;;;2347568;53;21386;-59
2021/04/09 00:45:35;;;;;;;4.07;2.10;;;4.90;37.30;;;;;;2357493;53;21734;-62
2021/04/09 00:48:04;;;;;;;4.55;1.77;;;4.80;37.20;;;;;;2350641;53;20970;-63
2021/04/09 00:50:30;;;;;;;5.30;2.00;;;4.80;37.30;;;;;;2366480;53;20902;-62
2021/04/09 00:52:56;;;;;;;4.75;1.87;;;4.80;37.40;;;;;;2618565;52;21255;-62
2021/04/09 00:55:22;;;;;;;3.47;1.83;;;4.70;37.50;;;;;;2366655;53;20893;-62
2021/04/09 00:57:50;;;;;;;4.87;2.05;;;4.70;37.50;;;;;;2367132;53;21743;-60
2021/04/09 01:00:18;;;;;;;5.45;2.17;;;4.60;37.50;;;;;;2366922;53;20941;-60
2021/04/09 01:02:44;;;;;;;4.47;2.03;;;4.60;37.60;;;;;;2366609;53;20956;-61
2021/04/09 01:05:11;;;;;;;5.15;1.90;;;4.50;37.50;;;;;;2617478;52;20945;-61
2021/04/09 01:07:41;;;;;;;5.57;2.33;;;4.50;37.60;;;;;;2366397;53;20960;-60
2021/04/09 01:10:08;;;;;;;4.03;1.98;;;4.50;37.80;;;;;;2365675;53;20994;-61
2021/04/09 01:12:39;;;;;;;4.32;1.83;;;4.50;37.80;;;;;;2593786;52;21749;-60
2021/04/09 01:15:07;;;;;;;5.37;2.58;;;4.40;37.90;;;;;;2352801;53;20961;-62
2021/04/09 01:17:46;;;;;;;5.10;2.12;;;4.40;37.90;;;;;;2366311;53;20937;-61
2021/04/09 01:20:24;;;;;;;4.37;2.05;;;4.40;38.20;;;;;;2610593;52;21029;-59
2021/04/09 01:23:16;;;;;;;5.50;2.22;;;4.30;38.10;;;;;;2355578;53;20958;-59
2021/04/09 01:26:06;;;;;;;6.30;2.12;;;4.30;38.50;;;;;;2352203;53;20970;-63
2021/04/09 01:29:15;;;;;;;3.80;1.75;;;4.30;38.40;;;;;;2366555;53;20961;-62
2021/04/09 01:31:51;;;;;;;3.78;1.65;;;4.20;38.50;;;;;;2366620;53;20929;-60
2021/04/09 01:34:17;;;;;;;5.15;2.33;;;4.20;38.40;;;;;;2365975;53;20993;-61
2021/04/09 01:36:51;;;;;;;5.22;2.28;;;4.20;38.30;;;;;;2351890;53;20946;-62
2021/04/09 01:40:19;;;;;;;4.05;1.80;;;4.20;38.70;;;;;;2361749;53;21885;-60
2021/04/09 01:42:47;;;;;;;5.28;2.00;;;4.20;39.10;;;;;;2361938;53;20945;-61
2021/04/09 01:45:15;;;;;;;3.83;1.58;;;4.20;38.50;;;;;;2358869;53;21039;-62
2021/04/09 01:47:42;;;;;;;3.83;1.77;;;4.20;38.60;;;;;;2351316;53;20925;-59
2021/04/09 01:50:13;;;;;;;3.50;1.60;;;4.10;38.60;;;;;;2356396;53;21960;-61
2021/04/09 01:52:41;;;;;;;4.00;1.70;;;4.10;38.70;;;;;;2614600;52;21725;-59
2021/04/09 01:55:07;;;;;;;4.18;1.98;;;4.10;38.60;;;;;;2354997;53;21022;-61
2021/04/09 01:57:34;;;;;;;4.37;2.20;;;4.10;38.70;;;;;;2361700;53;21034;-61
2021/04/09 02:00:00;;;;;;;4.50;1.98;;;4.10;38.70;;;;;;2595254;52;21013;-63
2021/04/09 02:02:26;;;;;;;4.97;2.30;;;4.10;38.70;;;;;;2347948;53;20992;-62
2021/04/09 02:04:53;;;;;;;4.62;2.03;;;4.10;38.80;;;;;;2360420;53;21031;-59
2021/04/09 02:07:19;;;;;;;3.67;1.75;;;4.10;38.80;;;;;;2356881;53;20906;-61
2021/04/09 02:09:46;;;;;;;3.65;2.10;;;4.00;38.90;;;;;;2588806;52;21558;-63
2021/04/09 02:12:13;;;;;;;5.85;2.20;;;4.00;38.90;;;;;;2363256;53;20939;-61
2021/04/09 02:14:43;;;;;;;6.15;2.45;;;4.10;39.10;;;;;;2617354;52;21009;-61
2021/04/09 02:17:09;;;;;;;6.12;2.08;;;4.00;39.20;;;;;;2351373;53;21038;-62
2021/04/09 02:23:05;;;;;;;4.87;1.98;;;4.00;39.60;;;;;;2602225;52;21692;-61
2021/04/09 02:25:31;;;;;;;7.72;2.30;;;4.00;39.20;;;;;;2599479;52;20910;-63
2021/04/09 02:27:57;;;;;;;4.28;1.90;;;4.00;39.30;;;;;;2366075;53;20949;-61
2021/04/09 02:30:24;;;;;;;5.18;1.80;;;4.00;39.20;;;;;;2596652;52;21027;-62
2021/04/09 02:32:51;;;;;;;3.70;1.65;;;4.00;39.40;;;;;;2355191;53;21409;-59
2021/04/09 02:35:17;;;;;;;4.55;1.80;;;4.00;39.40;;;;;;2364396;53;20978;-60
2021/04/09 02:37:44;;;;;;;4.30;1.75;;;3.90;39.40;;;;;;2601246;52;20993;-62
2021/04/09 02:40:13;;;;;;;4.00;1.87;;;4.00;39.50;;;;;;2347728;53;21019;-62
2021/04/09 02:42:39;;;;;;;4.37;1.85;;;3.90;39.80;;;;;;2365973;53;21002;-61
2021/04/09 02:45:07;;;;;;;5.35;1.80;;;3.90;39.50;;;;;;2573326;52;21000;-61
2021/04/09 02:47:33;;;;;;;4.45;1.90;;;3.90;39.50;;;;;;2366982;53;20964;-61
2021/04/09 02:50:04;;;;;;;3.47;1.70;;;3.90;39.50;;;;;;2366206;53;20925;-59
2021/04/09 02:52:34;;;;;;;3.72;1.60;;;3.90;39.50;;;;;;2367309;53;20970;-62
2021/04/09 02:55:07;;;;;;;5.03;1.90;;;3.90;39.70;;;;;;2617882;52;21775;-62
2021/04/09 02:57:34;;;;;;;3.15;1.40;;;3.90;39.70;;;;;;2367123;53;21005;-60
2021/04/09 03:00:03;;;;;;;4.62;1.42;;;3.90;39.70;;;;;;2366346;53;20958;-59
2021/04/09 03:02:30;;;;;;;3.47;1.30;;;3.90;39.80;;;;;;2617935;52;21032;-62
2021/04/09 03:04:57;;;;;;;2.95;1.20;;;3.90;39.70;;;;;;2366718;53;20929;-61
2021/04/09 03:07:23;;;;;;;4.65;1.67;;;3.80;39.70;;;;;;2366441;53;20925;-60
2021/04/09 03:09:50;;;;;;;3.83;1.20;;;3.80;39.70;;;;;;2366463;53;21506;-61
2021/04/09 03:12:18;;;;;;;3.53;1.55;;;3.80;39.70;;;;;;2367081;53;20921;-60
2021/04/09 03:14:45;;;;;;;3.12;1.30;;;3.80;39.80;;;;;;2366041;53;20918;-61
2021/04/09 03:17:14;;;;;;;4.25;1.50;;;3.80;39.90;;;;;;2617883;52;20886;-62
2021/04/09 03:19:40;;;;;;;3.30;1.40;;;3.80;40.00;;;;;;2333598;54;21026;-62
2021/04/09 03:22:09;;;;;;;4.53;1.83;;;3.80;40.00;;;;;;2356023;53;20979;-60
2021/04/09 03:24:36;;;;;;;3.10;1.40;;;3.80;40.10;;;;;;2361641;53;20882;-59
2021/04/09 03:27:03;;;;;;;2.90;1.30;;;3.80;40.20;;;;;;2366868;53;21011;-61
2021/04/09 03:29:30;;;;;;;3.15;1.40;;;3.80;40.30;;;;;;2363258;53;20986;-62
2021/04/09 03:31:59;;;;;;;3.85;1.50;;;3.80;40.30;;;;;;2349707;53;20933;-63
2021/04/09 03:34:25;;;;;;;2.87;1.20;;;3.80;40.40;;;;;;2618480;52;20921;-62
2021/04/09 03:36:52;;;;;;;3.20;1.70;;;3.80;40.40;;;;;;2366798;53;20914;-60
2021/04/09 03:39:18;;;;;;;4.25;2.08;;;3.80;40.50;;;;;;2366815;53;21578;-61
2021/04/09 03:41:45;;;;;;;5.85;1.67;;;3.80;40.70;;;;;;2366831;53;20910;-59
2021/04/09 03:44:11;;;;;;;4.10;1.50;;;3.80;40.80;;;;;;2617785;52;20927;-62
2021/04/09 03:46:37;;;;;;;4.55;1.30;;;3.90;40.90;;;;;;2363644;53;20985;-61
2021/04/09 03:49:04;;;;;;;3.17;1.30;;;3.90;41.00;;;;;;2613310;52;20868;-60
2021/04/09 03:51:30;;;;;;;4.78;1.30;;;4.00;41.00;;;;;;2351912;53;20894;-61
2021/04/09 03:53:57;;;;;;;2.67;1.10;;;4.00;41.00;;;;;;2597827;52;20982;-61
2021/04/09 03:56:27;;;;;;;4.70;1.40;;;4.00;41.00;;;;;;2366194;53;20977;-62
2021/04/09 03:58:53;;;;;;;3.10;1.27;;;4.00;41.00;;;;;;2369041;53;20898;-60
2021/04/09 04:01:19;;;;;;;3.97;1.40;;;4.00;41.00;;;;;;2346647;53;20980;-60
2021/04/09 04:03:47;;;;;;;3.60;1.52;;;4.10;41.00;;;;;;2366846;53;20921;-60
2021/04/09 04:06:17;;;;;;;3.45;1.30;;;4.10;41.10;;;;;;2367920;53;20913;-61
2021/04/09 04:08:43;;;;;;;3.33;1.45;;;4.10;41.00;;;;;;2366506;53;20918;-63
2021/04/09 04:11:09;;;;;;;2.87;1.30;;;4.10;41.00;;;;;;2617766;52;21060;-59
2021/04/09 04:13:35;;;;;;;5.32;1.50;;;4.10;41.10;;;;;;2366643;53;21663;-61
2021/04/09 04:16:01;;;;;;;3.42;1.20;;;4.10;41.10;;;;;;2618129;52;20920;-63
2021/04/09 04:18:28;;;;;;;3.03;1.17;;;4.20;41.20;;;;;;2366491;53;20945;-63
2021/04/09 04:20:54;;;;;;;3.58;1.40;;;4.20;41.20;;;;;;2618260;52;20926;-60
2021/04/09 04:23:20;;;;;;;2.70;1.30;;;4.20;41.20;;;;;;2616850;52;20869;-61
2021/04/09 04:25:46;;;;;;;2.80;1.33;;;4.20;41.30;;;;;;2347816;53;20977;-61
2021/04/09 04:28:13;;;;;;;2.97;1.37;;;4.20;41.30;;;;;;2357091;53;20934;-62
2021/04/09 04:30:40;;;;;;;4.22;1.20;;;4.30;41.40;;;;;;2354260;53;20947;-60
2021/04/09 04:33:07;;;;;;;3.30;1.48;;;4.30;41.40;;;;;;2350637;53;21079;-60
2021/04/09 04:35:33;;;;;;;4.07;1.73;;;4.30;41.40;;;;;;2367484;53;20929;-59
2021/04/09 04:38:00;;;;;;;3.78;1.48;;;4.40;41.40;;;;;;2366348;53;20937;-62
2021/04/09 04:40:29;;;;;;;3.37;1.55;;;4.40;41.50;;;;;;2366458;53;20952;-59
2021/04/09 04:42:56;;;;;;;5.05;1.77;;;4.40;41.40;;;;;;2366909;53;20914;-61
2021/04/09 04:45:23;;;;;;;3.20;1.20;;;4.40;41.40;;;;;;2366629;53;20917;-61
2021/04/09 04:47:49;;;;;;;3.10;1.50;;;4.40;41.40;;;;;;2367066;53;21004;-61
2021/04/09 04:50:15;;;;;;;3.85;1.30;;;4.40;41.30;;;;;;2618402;52;20918;-61
2021/04/09 04:52:41;;;;;;;2.92;1.45;;;4.50;41.40;;;;;;2618107;52;20944;-62
2021/04/09 04:55:08;;;;;;;4.90;1.67;;;4.50;41.50;;;;;;2366531;53;21358;-63
2021/04/09 04:57:34;;;;;;;3.80;1.48;;;4.50;41.60;;;;;;2363316;53;21002;-59
2021/04/09 05:00:00;;;;;;;6.78;2.70;;;4.50;41.50;;;;;;2359900;53;21455;-60
2021/04/09 05:02:27;;;;;;;5.32;2.20;;;4.50;41.50;;;;;;2367970;53;20945;-61
2021/04/09 05:04:53;;;;;;;4.45;2.12;;;4.50;41.60;;;;;;2351061;53;20990;-60
2021/04/09 05:07:19;;;;;;;3.90;1.92;;;4.60;41.70;;;;;;2350553;53;20985;-62
2021/04/09 05:09:45;;;;;;;4.03;1.98;;;4.60;41.80;;;;;;2367413;53;20966;-61
2021/04/09 05:12:11;;;;;;;3.83;1.62;;;4.60;41.80;;;;;;2350953;53;21056;-62
2021/04/09 05:14:38;;;;;;;3.85;1.70;;;4.60;41.80;;;;;;2366733;53;20953;-61
2021/04/09 05:17:04;;;;;;;4.68;1.62;;;4.70;41.90;;;;;;2366677;53;21074;-62
2021/04/09 05:19:32;;;;;;;3.60;1.50;;;4.70;41.90;;;;;;2358528;53;20957;-62
2021/04/09 05:21:58;;;;;;;3.75;1.52;;;4.70;42.50;;;;;;2358183;53;21624;-62
2021/04/09 05:24:34;;;;;;;3.05;1.30;;;4.70;41.90;;;;;;2618465;52;21302;-62
2021/04/09 05:27:02;;;;;;;3.30;1.58;;;4.80;42.10;;;;;;2366962;53;20924;-62
2021/04/09 05:29:29;;;;;;;4.65;1.50;;;4.80;42.00;;;;;;2366637;53;21925;-59
2021/04/09 05:31:57;;;;;;;4.03;1.62;;;4.80;42.10;;;;;;2366234;53;20953;-59
2021/04/09 05:34:23;;;;;;;5.15;1.52;;;4.80;42.70;;;;;;2618631;52;20912;-59
2021/04/09 05:36:49;;;;;;;3.70;1.50;;;4.90;42.30;;;;;;2617775;52;20904;-60
2021/04/09 05:39:18;;;;;;;3.78;1.52;;;4.90;42.40;;;;;;2366792;53;20909;-60
2021/04/09 05:41:44;;;;;;;3.05;1.40;;;5.00;42.50;;;;;;2360242;53;21017;-60
2021/04/09 05:44:11;;;;;;;3.33;1.77;;;5.00;42.50;;;;;;2349380;53;21008;-60
2021/04/09 05:46:37;;;;;;;3.70;1.50;;;5.10;42.50;;;;;;2366641;53;20924;-60
2021/04/09 05:49:03;;;;;;;3.58;1.50;;;5.10;42.60;;;;;;2366133;53;20906;-63
2021/04/09 05:51:29;;;;;;;4.53;2.20;;;5.20;42.70;;;;;;2350338;53;20966;-62
2021/04/09 05:53:56;;;;;;;4.00;1.90;;;5.30;42.90;;;;;;2366931;53;20890;-61
2021/04/09 05:56:22;;;;;;;4.47;2.12;;;5.30;42.90;;;;;;2366676;53;20915;-62
2021/04/09 05:58:49;;;;;;;3.83;1.77;;;5.40;42.90;;;;;;2366406;53;20919;-60
2021/04/09 06:01:15;;;;;;;6.18;2.25;;;5.50;43.10;;;;;;2367014;53;20878;-63
2021/04/09 06:03:42;;;;;;;4.20;1.90;;;5.50;43.00;;;;;;2366699;53;20981;-62
2021/04/09 06:06:09;;;;;;;4.07;2.10;;;5.60;43.20;;;;;;2366565;53;20940;-61
2021/04/09 06:08:37;;;;;;;4.10;1.87;;;5.70;43.30;;;;;;2363238;53;20892;-60
2021/04/09 06:11:03;;;;;;;3.78;1.90;;;5.80;43.40;;;;;;2366696;53;21023;-60
2021/04/09 06:13:32;;;;;;;4.85;1.60;;;5.90;43.60;;;;;;2366764;53;20968;-63
2021/04/09 06:15:58;;;;;;;3.35;1.58;;;5.90;43.50;;;;;;2593199;52;20945;-60
2021/04/09 06:18:25;;;;;;;4.50;1.90;;;6.00;43.50;;;;;;2603150;52;20935;-61
2021/04/09 06:20:51;;;;;;;3.92;1.73;;;6.10;43.60;;;;;;2359369;53;20918;-61
2021/04/09 06:23:17;;;;;;;4.20;2.00;;;6.20;43.70;;;;;;2357735;53;20955;-61
2021/04/09 06:25:43;;;;;;;5.15;2.25;;;6.30;43.80;;;;;;2608973;52;20918;-62
2021/04/09 06:28:10;;;;;;;6.53;2.90;;;6.50;44.10;;;;;;2370024;53;21700;-61
2021/04/09 06:30:36;;;;;;;7.45;3.40;;;6.50;44.20;;;;;;2618237;52;20898;-61
2021/04/09 06:33:03;;;;;;;7.43;3.37;;;6.70;44.50;;;;;;2354757;53;21013;-61
2021/04/09 06:35:32;;;;;;;10.93;5.12;;;6.80;44.70;;;;;;2311564;53;21001;-62
2021/04/09 06:37:59;;;;;;;8.57;3.83;;;7.00;44.80;;;;;;2554528;53;20915;-63
2021/04/09 06:40:26;;;;;;;8.98;3.72;;;7.20;44.80;;;;;;2578573;53;20931;-60
2021/04/09 06:42:59;;;;;;;6.05;3.25;;;7.40;44.80;;;;;;2330102;54;20953;-64
2021/04/09 06:45:26;;;;;;;5.32;2.70;;;7.50;44.70;;;;;;2343264;53;20906;-62
2021/04/09 06:47:53;;;;;;;5.60;3.20;;;7.70;44.60;;;;;;2343297;53;21338;-64
2021/04/09 06:50:19;;;;;;;5.43;3.00;;;7.80;44.40;;;;;;2342958;53;21003;-62
2021/04/09 06:52:45;;;;;;;5.18;2.90;;;8.00;44.40;;;;;;2345130;53;20891;-63
2021/04/09 06:55:12;;;;;;;5.12;2.95;;;8.20;44.50;;;;;;2354057;53;20963;-63
2021/04/09 06:57:41;;;;;;;5.85;2.80;;;8.30;44.30;;;;;;2358032;53;20898;-64
2021/04/09 07:00:11;;;;;;;4.85;2.33;;;8.50;44.20;;;;;;2366204;53;20878;-60
2021/04/09 07:02:49;;;;;;;5.07;2.70;;;8.60;44.00;;;;;;2367397;53;21114;-61
2021/04/09 07:05:16;;;;;;;5.45;2.90;;;8.70;43.80;;;;;;2351225;53;20959;-64
2021/04/09 07:07:42;;;;;;;7.18;3.05;;;8.80;43.60;;;;;;2354988;53;21032;-63
2021/04/09 07:10:08;;;;;;;4.60;2.97;;;8.90;43.40;;;;;;2361857;53;21632;-65
2021/04/09 07:12:36;;;;;;;6.10;3.45;;;9.00;43.40;;;;;;2365718;53;20985;-62
2021/04/09 07:15:07;;;;;;;6.95;3.28;;;9.10;43.30;;;;;;2351305;53;20981;-62
2021/04/09 07:17:49;;;;;;;8.20;3.67;;;9.20;43.30;;;;;;2370135;53;21453;-61
2021/04/09 07:20:23;;;;;;;6.07;3.75;;;9.20;43.30;;;;;;2365983;53;21915;-64
2021/04/09 07:22:51;;;;;;;5.43;3.12;;;9.30;43.40;;;;;;2615755;52;20922;-64
2021/04/09 07:25:19;;;;;;;6.72;2.75;;;9.40;43.30;;;;;;2588916;53;20972;-61
2021/04/09 07:27:47;;;;;;;4.60;2.40;;;9.50;43.20;;;;;;2614682;52;21056;-63
2021/04/09 07:30:27;;;;;;;4.03;2.22;;;9.60;43.20;;;;;;2366395;53;20977;-63
2021/04/09 07:33:04;;;;;;;4.10;2.10;;;9.70;43.10;;;;;;2352397;53;21498;-64
2021/04/09 07:35:52;;;;;;;3.62;1.70;;;9.80;43.00;;;;;;2599749;52;21383;-61
2021/04/09 07:38:20;;;;;;;3.70;1.50;;;9.90;43.00;;;;;;2365494;53;20928;-61
2021/04/09 07:40:57;;;;;;;3.50;1.58;;;10.00;42.00;;;;;;2618266;52;20993;-63
2021/04/09 07:43:23;;;;;;;3.28;1.48;;;10.00;41.90;;;;;;2595750;52;21002;-61
2021/04/09 07:45:54;;;;;;;4.05;1.52;;;10.20;42.00;;;;;;2614986;52;21732;-64
2021/04/09 07:48:27;;;;;;;5.65;1.87;;;10.30;42.00;;;;;;2616720;52;21708;-61
2021/04/09 07:50:53;;;;;;;;;;;10.40;41.90;;;;;;2369848;53;20926;-64
2021/04/09 07:53:35;;;;;;;3.53;1.50;;;10.50;41.80;;;;;;2367957;53;20318;-63
2021/04/09 07:56:09;;;;;;;4.35;1.52;;;10.60;41.90;;;;;;2598921;52;20878;-63
2021/04/09 07:58:36;;;;;;;3.22;1.35;;;10.80;41.90;;;;;;2617861;52;21005;-63
2021/04/09 08:01:03;;;;;;;3.00;1.50;;;10.90;41.90;;;;;;2356924;53;20943;-62
2021/04/09 08:03:39;;;;;;;4.32;1.73;;;11.00;42.00;;;;;;2346297;53;21908;-64
2021/04/09 08:06:12;;;;;;;3.10;1.30;;;11.10;41.90;;;;;;2366342;53;20897;-63
2021/04/09 08:09:48;;;;;;;3.25;1.50;;;11.30;41.90;;;;;;2593949;52;20917;-64
2021/04/09 08:12:31;;;;;;;3.40;1.60;;;11.40;41.80;;;;;;2366786;53;21040;-61
2021/04/09 08:18:29;;;;;;;4.07;2.08;;;11.60;42.10;;;;;;2618540;52;20981;-62
2021/04/09 08:20:56;;;;;;;4.50;1.87;;;12.10;42.10;;;;;;2365846;53;21313;-62
2021/04/09 08:23:22;;;;;;;3.70;1.80;;;12.30;42.50;;;;;;2365981;53;20933;-62
2021/04/09 08:25:48;;;;;;;4.55;2.08;;;12.50;42.70;;;;;;2366207;53;20948;-62
2021/04/09 08:28:15;;;;;;;4.55;2.30;;;12.60;42.20;;;;;;2366361;53;20917;-61
2021/04/09 08:30:43;;;;;;;4.43;2.17;;;12.90;42.30;;;;;;2367115;53;20946;-63
2021/04/09 08:33:11;;;;;;;4.12;2.20;;;13.10;42.30;;;;;;2346186;53;21010;-63
2021/04/09 08:35:37;;;;;;;6.57;2.65;;;13.30;42.30;;;;;;2349608;53;20994;-63
2021/04/09 08:38:04;;;;;;;4.32;2.12;;;13.50;42.20;;;;;;2618329;52;20986;-64
2021/04/09 08:40:30;;;;;;;5.22;2.00;;;13.70;42.10;;;;;;2365939;53;20920;-62
2021/04/09 08:42:57;;;;;;;5.80;2.00;;;13.90;42.10;;;;;;2617609;52;20926;-63
2021/04/09 08:45:24;;;;;;;5.05;2.35;;;14.10;42.00;;;;;;2366202;53;20925;-61
2021/04/09 08:47:55;;;;;;;4.50;2.33;;;14.40;42.10;;;;;;2366589;53;20981;-64
2021/04/09 08:50:21;;;;;;;4.80;2.25;;;14.60;41.90;;;;;;2618018;52;20890;-62
2021/04/09 08:52:47;;;;;;;6.55;2.42;;;14.80;41.90;;;;;;2366273;53;20922;-63
2021/04/09 08:55:14;;;;;;;6.57;2.50;;;15.00;41.90;;;;;;2366364;53;21324;-62
2021/04/09 08:57:42;;;;;;;5.50;2.65;;;15.40;41.90;;;;;;2607070;52;21042;-62
2021/04/09 09:00:17;;;;;;;4.70;2.40;;;15.60;41.50;;;;;;2356019;53;20898;-61
2021/04/09 09:02:54;;;;;;;4.57;2.58;;;15.80;41.00;;;;;;2350105;54;20986;-62
2021/04/09 09:05:26;;;;;;;5.45;2.50;;;16.00;40.80;;;;;;2617895;52;20949;-63
2021/04/09 09:07:53;;;;;;;;;;;16.20;40.80;;;;;;2369992;53;20993;-63
2021/04/09 09:12:32;;;;;;;4.43;1.60;;;16.40;40.00;;;;;;2351366;53;140490;-81
2021/04/09 09:19:49;;;;;;;4.20;1.73;;;16.90;38.40;;;;;;2421920;56;21075;-80
2021/04/09 09:25:55;;;;;;;4.32;2.00;;;17.40;35.20;;;;;;2411970;56;21085;-82
2021/04/09 09:29:17;;;;;;;6.95;2.37;;;17.50;33.40;;;;;;2194820;57;21456;-81
2021/04/09 09:32:12;;;;;;;4.03;2.00;;;17.70;33.50;;;;;;2422178;55;21002;-80
2021/04/09 09:35:13;;;;;;;4.07;1.90;;;17.80;32.70;;;;;;2191977;57;21095;-81
2021/04/09 09:37:51;;;;;;;;;;;;;;;;;;;;;
2021/04/09 09:40:50;;;;;;;4.45;1.98;;;17.90;32.30;;;;;;2210116;57;21080;-81
2021/04/09 09:43:30;;;;;;;4.45;1.67;;;18.10;32.50;;;;;;2403813;56;21394;-82
2021/04/09 09:45:57;;;;;;;6.28;2.00;;;18.20;31.30;;;;;;2428878;56;21412;-82
2021/04/09 09:52:25;;;;;;;4.28;1.95;;;18.40;30.00;;;;;;2210589;57;20992;-81
2021/04/09 09:55:08;;;;;;;;;;;18.60;29.70;;;;;;2425047;56;21068;-83
2021/04/09 09:58:33;;;;;;;5.47;1.80;;;18.70;30.30;;;;;;2210417;57;20091;-83
2021/04/09 10:04:54;;;;;;;7.43;1.80;;;19.20;31.00;;;;;;2206655;57;20984;-80
2021/04/09 10:18:51;;;;;;;5.35;2.20;;;20.40;31.60;;;;;;2425099;55;21019;-82
2021/04/09 11:53:01;;;;;;;3.40;1.45;;;21.40;29.10;;;;;;2416555;56;21834;-82
2021/04/09 12:49:09;;;;;;;4.35;1.55;;;21.40;25.40;;;;;;2376075;57;22181;-82
2021/04/09 12:52:11;;;;;;;;;;;;;;;;;;;;;
2021/04/09 12:59:06;;;;;;;3.03;1.48;;;22.00;26.80;;;;;;2374327;57;21024;-82
2021/04/09 13:02:38;;;;;;;4.03;1.40;;;22.10;26.90;;;;;;2326133;57;21062;-82
2021/04/09 13:05:53;;;;;;;;;;;;;;;;;;;;;
2021/04/09 13:22:20;;;;;;;4.82;1.30;;;22.10;26.30;;;;;;2425586;56;21055;-84
2021/04/09 13:54:38;;;;;;;;;;;;;;;;;;;;;
2021/04/09 13:57:44;;;;;;;4.18;1.10;;;22.30;27.20;;;;;;2215505;57;21004;-83
2021/04/09 14:01:31;;;;;;;2.85;1.05;;;23.60;24.70;;;;;;2419064;56;20987;-82
2021/04/09 14:04:02;;;;;;;;;;;23.40;24.10;;;;;;2415998;56;21077;-81
2021/04/09 14:06:58;;;;;;;;;;;;;;;;;;;;;
2021/04/09 14:13:27;;;;;;;2.85;0.85;;;23.20;24.70;;;;;;2408106;56;21144;-84
2021/04/09 14:19:24;;;;;;;;;;;;;;;;;;;;;
2021/04/09 14:23:02;;;;;;;4.07;1.00;;;23.30;24.50;;;;;;2393728;56;21015;-84
2021/04/09 14:27:50;;;;;;;;;;;;;;;;;;;;;
2021/04/09 14:41:01;;;;;;;2.45;0.80;;;23.30;23.90;;;;;;2423151;56;21009;-83
2021/04/09 14:43:31;;;;;;;2.75;0.73;;;23.30;24.10;;;;;;2403921;56;20961;-83
2021/04/09 15:41:01;;;;;;;2.72;1.00;;;23.40;25.40;;;;;;2569267;53;22857;-62
2021/04/09 15:43:32;;;;;;;4.75;1.27;;;23.10;25.10;;;;;;2328640;54;21020;-64
2021/04/09 15:45:58;;;;;;;5.03;1.27;;;23.00;24.90;;;;;;2351811;53;20945;-63
2021/04/09 15:48:25;;;;;;;3.12;0.90;;;23.00;24.90;;;;;;2342450;53;21072;-62
2021/04/09 15:50:51;;;;;;;4.10;1.15;;;23.00;25.00;;;;;;2572114;53;20936;-62
2021/04/09 15:53:18;;;;;;;2.78;0.93;;;22.90;24.80;;;;;;2330944;53;20988;-64
2021/04/09 15:55:47;;;;;;;3.15;1.12;;;22.90;24.80;;;;;;2566986;53;20990;-64
2021/04/09 15:58:14;;;;;;;2.70;0.95;;;22.90;24.70;;;;;;2311934;54;20938;-62
2021/04/09 16:00:42;;;;;;;4.20;1.00;;;22.90;24.80;;;;;;2334548;54;21075;-64
2021/04/09 16:03:08;;;;;;;5.18;0.82;;;22.90;24.90;;;;;;2347718;54;22361;-64
2021/04/09 16:05:34;;;;;;;2.80;0.95;;;22.90;25.00;;;;;;2313123;55;20967;-62
2021/04/09 16:08:01;;;;;;;2.80;0.80;;;22.90;24.80;;;;;;2318544;54;21023;-64
2021/04/09 16:10:27;;;;;;;2.35;1.00;;;22.90;24.60;;;;;;2317208;53;20970;-62
2021/04/09 16:12:54;;;;;;;4.40;1.62;;;22.90;24.50;;;;;;2342662;53;20988;-62
2021/04/09 16:15:20;;;;;;;3.08;0.95;;;22.80;24.50;;;;;;2298025;54;20951;-64
2021/04/09 16:17:47;;;;;;;2.92;1.05;;;22.80;24.60;;;;;;2546549;53;20950;-61
2021/04/09 16:20:15;;;;;;;1.92;0.82;;;22.70;24.50;;;;;;2311968;53;20936;-64
2021/04/09 16:22:43;;;;;;;2.90;0.95;;;22.70;24.40;;;;;;2302847;53;20927;-61
2021/04/09 16:25:14;;;;;;;2.85;1.00;;;22.60;24.40;;;;;;2312416;53;20956;-63
2021/04/09 16:27:48;;;;;;;3.60;1.30;;;22.50;24.40;;;;;;2330107;53;21817;-62
2021/04/09 16:30:22;;;;;;;3.45;0.95;;;22.50;24.30;;;;;;2332134;53;20996;-64
2021/04/09 16:32:49;;;;;;;4.53;1.50;;;22.50;24.50;;;;;;2549701;53;20975;-65
2021/04/09 16:35:15;;;;;;;4.68;1.70;;;22.40;24.40;;;;;;2330509;54;20916;-64
2021/04/09 16:37:41;;;;;;;4.82;1.60;;;22.30;24.40;;;;;;2332500;54;20966;-62
2021/04/09 16:40:09;;;;;;;4.18;1.77;;;22.30;24.30;;;;;;2366281;53;20948;-62
2021/04/09 16:42:36;;;;;;;5.07;1.30;;;22.20;24.10;;;;;;2366380;53;21748;-61
2021/04/09 16:45:07;;;;;;;2.72;0.90;;;22.20;24.10;;;;;;2608462;52;20998;-62
2021/04/09 16:47:34;;;;;;;5.28;1.20;;;22.10;23.90;;;;;;2600082;52;21523;-65
2021/04/09 16:50:00;;;;;;;4.10;1.52;;;22.10;23.90;;;;;;2366403;53;20988;-61
2021/04/09 16:52:29;;;;;;;3.37;1.10;;;22.00;23.60;;;;;;2365648;53;20927;-61
2021/04/09 16:54:55;;;;;;;4.47;1.50;;;21.90;23.60;;;;;;2365366;53;21951;-61
2021/04/09 16:57:22;;;;;;;4.87;1.92;;;21.80;23.70;;;;;;2613216;52;22062;-61
2021/04/09 16:59:49;;;;;;;5.87;2.08;;;21.70;23.80;;;;;;2621805;52;20949;-64
2021/04/09 17:02:16;;;;;;;5.93;2.10;;;21.70;23.90;;;;;;2603216;52;20920;-63
2021/04/09 17:04:42;;;;;;;3.28;1.50;;;21.60;23.80;;;;;;2362178;53;21013;-67
2021/04/09 17:07:09;;;;;;;3.60;1.50;;;21.50;23.90;;;;;;2369880;53;20945;-63
2021/04/09 17:09:35;;;;;;;3.58;1.42;;;21.40;23.90;;;;;;2354705;53;20932;-66
2021/04/09 17:12:01;;;;;;;3.72;1.60;;;21.30;24.00;;;;;;2590497;52;20949;-64
2021/04/09 17:14:28;;;;;;;2.37;1.10;;;21.30;24.20;;;;;;2366425;53;20981;-63
2021/04/09 17:16:54;;;;;;;3.03;1.60;;;21.20;24.20;;;;;;2360102;53;20966;-65
2021/04/09 17:19:21;;;;;;;2.92;1.17;;;21.20;24.30;;;;;;2352554;53;20917;-62
2021/04/09 17:21:47;;;;;;;2.78;1.23;;;21.10;24.30;;;;;;2370316;53;20905;-62
2021/04/09 17:24:13;;;;;;;3.50;1.12;;;21.10;24.30;;;;;;2369594;53;21020;-66
2021/04/09 17:26:40;;;;;;;3.08;1.00;;;21.00;24.40;;;;;;2621203;52;20939;-64
2021/04/09 17:29:07;;;;;;;5.20;1.25;;;21.00;24.50;;;;;;2595803;52;21784;-65
2021/04/09 17:31:33;;;;;;;3.33;1.20;;;20.90;24.50;;;;;;2622207;52;20905;-64
2021/04/09 17:34:03;;;;;;;3.08;1.02;;;20.90;24.60;;;;;;2369479;54;22112;-62
2021/04/09 17:36:39;;;;;;;3.90;1.20;;;20.80;24.70;;;;;;2365849;53;20984;-63
2021/04/09 17:39:05;;;;;;;3.37;1.50;;;20.70;24.90;;;;;;2354148;53;20959;-63
2021/04/09 17:41:31;;;;;;;4.57;2.25;;;20.60;25.00;;;;;;2370215;53;21055;-65
2021/04/09 17:43:58;;;;;;;4.80;2.33;;;20.60;25.00;;;;;;2369801;53;20917;-63
2021/04/09 17:46:24;;;;;;;5.43;2.00;;;20.50;25.10;;;;;;2622961;52;20952;-63
2021/04/09 17:48:51;;;;;;;5.25;1.73;;;20.50;25.30;;;;;;2622102;52;20912;-63
2021/04/09 17:51:17;;;;;;;3.65;1.70;;;20.40;25.30;;;;;;2369988;54;20969;-63
2021/04/09 17:53:43;;;;;;;2.85;1.23;;;20.30;25.40;;;;;;2370297;54;20917;-64
2021/04/09 17:56:12;;;;;;;3.80;1.20;;;20.20;25.50;;;;;;2370457;54;20885;-67
2021/04/09 17:58:43;;;;;;;3.00;1.10;;;20.10;25.40;;;;;;2370248;53;20937;-63
2021/04/09 18:01:09;;;;;;;2.95;0.85;;;20.00;25.50;;;;;;2622039;52;20993;-62
2021/04/09 18:03:39;;;;;;;2.95;1.08;;;19.90;25.60;;;;;;2366532;53;21310;-62
2021/04/09 18:06:13;;;;;;;3.45;1.17;;;19.80;25.60;;;;;;2356363;53;20949;-62
2021/04/09 18:08:40;;;;;;;2.42;0.82;;;19.70;25.70;;;;;;2597295;52;21502;-62
2021/04/09 18:11:06;;;;;;;4.15;1.10;;;19.60;25.80;;;;;;2597174;52;20913;-63
2021/04/09 18:13:32;;;;;;;3.65;0.85;;;19.60;25.90;;;;;;2366122;53;20964;-62
2021/04/09 18:15:59;;;;;;;2.53;0.90;;;19.50;26.00;;;;;;2350117;53;20961;-62
2021/04/09 18:18:25;;;;;;;2.15;0.70;;;19.40;26.00;;;;;;2355894;53;21012;-67
2021/04/09 18:20:51;;;;;;;2.53;0.80;;;19.30;26.10;;;;;;2355276;53;20926;-66
2021/04/09 18:23:21;;;;;;;5.93;1.05;;;19.20;26.10;;;;;;2369142;53;21008;-65
2021/04/09 18:25:49;;;;;;;1.67;0.70;;;19.10;26.10;;;;;;2596356;52;21052;-62